sensor_id;sensor_type;location;lat;lon;timestamp;temperature;humidity
41985;DHT22;28319;48.116;10.818;2024-03-25T00:01:44;3.30;79.00
41985;DHT22;28319;48.116;10.818;2024-03-25T00:06:46;3.30;79.70
41985;DHT22;28319;48.116;10.818;2024-03-25T00:11:49;3.30;79.10
41985;DHT22;28319;48.116;10.818;2024-03-25T00:16:55;3.30;79.10
41985;DHT22;28319;48.116;10.818;2024-03-25T00:21:57;3.20;79.10
41985;DHT22;28319;48.116;10.818;2024-03-25T00:27:00;3.20;79.10
41985;DHT22;28319;48.116;10.818;2024-03-25T00:32:05;3.20;79.00
41985;DHT22;28319;48.116;10.818;2024-03-25T00:37:07;3.10;79.40
41985;DHT22;28319;48.116;10.818;2024-03-25T00:42:11;3.10;79.50
41985;DHT22;28319;48.116;10.818;2024-03-25T00:47:14;3.00;80.10
41985;DHT22;28319;48.116;10.818;2024-03-25T00:52:16;3.00;80.40
41985;DHT22;28319;48.116;10.818;2024-03-25T00:57:20;3.00;80.60
41985;DHT22;28319;48.116;10.818;2024-03-25T01:02:22;3.00;81.30
41985;DHT22;28319;48.116;10.818;2024-03-25T01:07:27;3.00;81.60
41985;DHT22;28319;48.116;10.818;2024-03-25T01:12:31;3.00;81.80
41985;DHT22;28319;48.116;10.818;2024-03-25T01:17:33;3.00;82.10
41985;DHT22;28319;48.116;10.818;2024-03-25T01:22:35;3.00;81.60
41985;DHT22;28319;48.116;10.818;2024-03-25T01:27:38;2.90;82.00
41985;DHT22;28319;48.116;10.818;2024-03-25T01:32:40;3.00;82.10
41985;DHT22;28319;48.116;10.818;2024-03-25T01:37:43;3.00;81.40
41985;DHT22;28319;48.116;10.818;2024-03-25T01:42:56;3.00;81.40
41985;DHT22;28319;48.116;10.818;2024-03-25T01:48:00;3.00;81.40
41985;DHT22;28319;48.116;10.818;2024-03-25T01:53:04;3.00;81.30
41985;DHT22;28319;48.116;10.818;2024-03-25T01:58:09;3.00;81.20
41985;DHT22;28319;48.116;10.818;2024-03-25T02:03:14;3.00;81.40
41985;DHT22;28319;48.116;10.818;2024-03-25T02:08:17;3.00;81.10
41985;DHT22;28319;48.116;10.818;2024-03-25T02:13:22;2.90;81.10
41985;DHT22;28319;48.116;10.818;2024-03-25T02:18:27;2.90;81.20
41985;DHT22;28319;48.116;10.818;2024-03-25T02:23:32;2.80;81.10
41985;DHT22;28319;48.116;10.818;2024-03-25T02:28:36;2.80;81.60
41985;DHT22;28319;48.116;10.818;2024-03-25T02:33:38;2.70;81.30
41985;DHT22;28319;48.116;10.818;2024-03-25T02:38:43;2.60;81.70
41985;DHT22;28319;48.116;10.818;2024-03-25T02:43:46;2.60;81.70
41985;DHT22;28319;48.116;10.818;2024-03-25T02:48:49;2.50;81.50
41985;DHT22;28319;48.116;10.818;2024-03-25T02:53:51;2.50;81.40
41985;DHT22;28319;48.116;10.818;2024-03-25T02:58:54;2.40;80.90
41985;DHT22;28319;48.116;10.818;2024-03-25T03:03:57;2.40;81.00
41985;DHT22;28319;48.116;10.818;2024-03-25T03:08:58;2.50;81.10
41985;DHT22;28319;48.116;10.818;2024-03-25T03:14:03;2.30;81.70
41985;DHT22;28319;48.116;10.818;2024-03-25T03:19:06;2.30;81.70
41985;DHT22;28319;48.116;10.818;2024-03-25T03:24:08;2.40;82.10
41985;DHT22;28319;48.116;10.818;2024-03-25T03:29:12;2.20;81.90
41985;DHT22;28319;48.116;10.818;2024-03-25T03:34:14;2.20;82.20
41985;DHT22;28319;48.116;10.818;2024-03-25T03:39:17;2.20;82.50
41985;DHT22;28319;48.116;10.818;2024-03-25T03:44:22;2.20;82.70
41985;DHT22;28319;48.116;10.818;2024-03-25T03:49:24;2.20;82.30
41985;DHT22;28319;48.116;10.818;2024-03-25T03:54:26;2.20;81.90
41985;DHT22;28319;48.116;10.818;2024-03-25T03:59:29;2.20;81.00
41985;DHT22;28319;48.116;10.818;2024-03-25T04:04:31;2.20;81.60
41985;DHT22;28319;48.116;10.818;2024-03-25T04:09:34;2.20;81.10
41985;DHT22;28319;48.116;10.818;2024-03-25T04:14:40;2.10;81.70
41985;DHT22;28319;48.116;10.818;2024-03-25T04:19:42;2.10;81.90
41985;DHT22;28319;48.116;10.818;2024-03-25T04:24:44;2.20;81.30
41985;DHT22;28319;48.116;10.818;2024-03-25T04:29:47;2.10;81.40
41985;DHT22;28319;48.116;10.818;2024-03-25T04:34:49;2.10;81.50
41985;DHT22;28319;48.116;10.818;2024-03-25T04:39:52;2.00;81.80
41985;DHT22;28319;48.116;10.818;2024-03-25T04:44:55;2.00;81.30
41985;DHT22;28319;48.116;10.818;2024-03-25T04:49:56;2.00;81.80
41985;DHT22;28319;48.116;10.818;2024-03-25T04:54:58;2.10;81.70
41985;DHT22;28319;48.116;10.818;2024-03-25T05:00:01;2.10;81.70
41985;DHT22;28319;48.116;10.818;2024-03-25T05:05:03;2.00;82.00
41985;DHT22;28319;48.116;10.818;2024-03-25T05:10:05;2.10;82.00
41985;DHT22;28319;48.116;10.818;2024-03-25T05:15:08;2.10;81.60
41985;DHT22;28319;48.116;10.818;2024-03-25T05:20:10;2.10;81.50
41985;DHT22;28319;48.116;10.818;2024-03-25T05:25:11;2.10;81.20
41985;DHT22;28319;48.116;10.818;2024-03-25T05:30:14;2.20;81.50
41985;DHT22;28319;48.116;10.818;2024-03-25T05:35:15;2.20;81.50
41985;DHT22;28319;48.116;10.818;2024-03-25T05:40:16;2.10;81.40
41985;DHT22;28319;48.116;10.818;2024-03-25T05:45:18;2.10;81.20
41985;DHT22;28319;48.116;10.818;2024-03-25T05:50:19;2.10;81.40
41985;DHT22;28319;48.116;10.818;2024-03-25T05:55:21;2.20;81.70
41985;DHT22;28319;48.116;10.818;2024-03-25T06:00:24;2.20;81.60
41985;DHT22;28319;48.116;10.818;2024-03-25T06:05:26;2.20;81.70
41985;DHT22;28319;48.116;10.818;2024-03-25T06:10:27;2.30;82.00
41985;DHT22;28319;48.116;10.818;2024-03-25T06:15:30;2.40;81.60
41985;DHT22;28319;48.116;10.818;2024-03-25T06:20:31;2.50;81.80
41985;DHT22;28319;48.116;10.818;2024-03-25T06:25:32;2.40;81.40
41985;DHT22;28319;48.116;10.818;2024-03-25T06:30:35;2.60;81.30
41985;DHT22;28319;48.116;10.818;2024-03-25T06:35:54;2.50;80.60
41985;DHT22;28319;48.116;10.818;2024-03-25T06:40:55;2.80;80.80
41985;DHT22;28319;48.116;10.818;2024-03-25T06:45:58;2.70;80.60
41985;DHT22;28319;48.116;10.818;2024-03-25T06:50:59;2.80;79.30
41985;DHT22;28319;48.116;10.818;2024-03-25T06:56:01;2.90;79.20
41985;DHT22;28319;48.116;10.818;2024-03-25T07:01:07;3.00;78.80
41985;DHT22;28319;48.116;10.818;2024-03-25T07:06:08;3.10;77.40
41985;DHT22;28319;48.116;10.818;2024-03-25T07:11:10;3.20;77.30
41985;DHT22;28319;48.116;10.818;2024-03-25T07:16:14;3.30;78.20
41985;DHT22;28319;48.116;10.818;2024-03-25T07:21:15;3.40;76.10
41985;DHT22;28319;48.116;10.818;2024-03-25T07:26:16;3.50;75.70
41985;DHT22;28319;48.116;10.818;2024-03-25T07:31:18;3.60;75.80
41985;DHT22;28319;48.116;10.818;2024-03-25T07:36:19;3.70;75.80
41985;DHT22;28319;48.116;10.818;2024-03-25T07:41:20;3.80;75.20
41985;DHT22;28319;48.116;10.818;2024-03-25T07:46:23;4.00;75.60
41985;DHT22;28319;48.116;10.818;2024-03-25T07:51:24;4.10;74.50
41985;DHT22;28319;48.116;10.818;2024-03-25T07:56:25;4.20;72.00
41985;DHT22;28319;48.116;10.818;2024-03-25T08:01:28;4.30;70.80
41985;DHT22;28319;48.116;10.818;2024-03-25T08:06:29;4.40;72.80
41985;DHT22;28319;48.116;10.818;2024-03-25T08:11:30;4.50;69.30
41985;DHT22;28319;48.116;10.818;2024-03-25T08:16:32;4.50;69.60
41985;DHT22;28319;48.116;10.818;2024-03-25T08:21:33;4.60;68.00
41985;DHT22;28319;48.116;10.818;2024-03-25T08:26:34;4.80;67.40
41985;DHT22;28319;48.116;10.818;2024-03-25T08:31:37;4.80;66.90
41985;DHT22;28319;48.116;10.818;2024-03-25T08:36:38;4.80;66.90
41985;DHT22;28319;48.116;10.818;2024-03-25T08:41:39;5.00;65.10
41985;DHT22;28319;48.116;10.818;2024-03-25T08:46:41;5.10;63.80
41985;DHT22;28319;48.116;10.818;2024-03-25T08:51:42;5.10;62.70
41985;DHT22;28319;48.116;10.818;2024-03-25T08:56:43;5.20;62.20
41985;DHT22;28319;48.116;10.818;2024-03-25T09:01:46;5.30;62.60
41985;DHT22;28319;48.116;10.818;2024-03-25T09:06:47;5.40;60.30
41985;DHT22;28319;48.116;10.818;2024-03-25T09:11:48;5.60;62.60
41985;DHT22;28319;48.116;10.818;2024-03-25T09:16:51;5.70;58.10
41985;DHT22;28319;48.116;10.818;2024-03-25T09:21:52;5.90;60.40
41985;DHT22;28319;48.116;10.818;2024-03-25T09:26:54;6.20;57.60
41985;DHT22;28319;48.116;10.818;2024-03-25T09:31:58;6.50;56.80
41985;DHT22;28319;48.116;10.818;2024-03-25T09:36:59;6.70;55.00
41985;DHT22;28319;48.116;10.818;2024-03-25T09:42:01;7.00;55.20
41985;DHT22;28319;48.116;10.818;2024-03-25T09:47:09;7.20;51.90
41985;DHT22;28319;48.116;10.818;2024-03-25T09:52:10;7.50;50.80
41985;DHT22;28319;48.116;10.818;2024-03-25T09:57:11;7.70;49.90
41985;DHT22;28319;48.116;10.818;2024-03-25T10:02:14;7.60;49.40
41985;DHT22;28319;48.116;10.818;2024-03-25T10:07:22;7.70;47.10
41985;DHT22;28319;48.116;10.818;2024-03-25T10:12:23;8.20;47.10
41985;DHT22;28319;48.116;10.818;2024-03-25T10:17:25;9.00;49.50
41985;DHT22;28319;48.116;10.818;2024-03-25T10:22:26;8.70;49.10
41985;DHT22;28319;48.116;10.818;2024-03-25T10:27:27;8.90;46.10
41985;DHT22;28319;48.116;10.818;2024-03-25T10:32:30;9.00;45.10
41985;DHT22;28319;48.116;10.818;2024-03-25T10:37:31;9.40;49.40
41985;DHT22;28319;48.116;10.818;2024-03-25T10:42:34;9.70;47.60
41985;DHT22;28319;48.116;10.818;2024-03-25T10:47:37;10.10;45.10
41985;DHT22;28319;48.116;10.818;2024-03-25T10:52:41;10.30;43.60
41985;DHT22;28319;48.116;10.818;2024-03-25T10:57:42;10.50;39.90
41985;DHT22;28319;48.116;10.818;2024-03-25T11:02:45;10.80;42.70
41985;DHT22;28319;48.116;10.818;2024-03-25T11:07:47;10.60;39.40
41985;DHT22;28319;48.116;10.818;2024-03-25T11:12:49;10.70;39.00
41985;DHT22;28319;48.116;10.818;2024-03-25T11:17:52;10.90;38.00
41985;DHT22;28319;48.116;10.818;2024-03-25T11:22:53;10.90;37.50
41985;DHT22;28319;48.116;10.818;2024-03-25T11:27:54;11.00;37.60
41985;DHT22;28319;48.116;10.818;2024-03-25T11:32:58;11.00;40.00
41985;DHT22;28319;48.116;10.818;2024-03-25T11:37:59;10.10;40.30
41985;DHT22;28319;48.116;10.818;2024-03-25T11:43:00;10.70;35.60
41985;DHT22;28319;48.116;10.818;2024-03-25T11:48:04;11.20;36.10
41985;DHT22;28319;48.116;10.818;2024-03-25T11:53:05;11.10;36.30
41985;DHT22;28319;48.116;10.818;2024-03-25T11:58:06;11.50;38.50
41985;DHT22;28319;48.116;10.818;2024-03-25T12:03:09;11.70;38.00
41985;DHT22;28319;48.116;10.818;2024-03-25T12:08:11;12.30;34.50
41985;DHT22;28319;48.116;10.818;2024-03-25T12:13:12;11.90;34.60
41985;DHT22;28319;48.116;10.818;2024-03-25T12:18:15;12.30;36.90
41985;DHT22;28319;48.116;10.818;2024-03-25T12:23:16;12.40;38.20
41985;DHT22;28319;48.116;10.818;2024-03-25T12:28:18;12.40;35.20
41985;DHT22;28319;48.116;10.818;2024-03-25T12:33:20;12.50;36.10
41985;DHT22;28319;48.116;10.818;2024-03-25T12:38:25;12.10;34.70
41985;DHT22;28319;48.116;10.818;2024-03-25T12:43:26;12.10;34.00
41985;DHT22;28319;48.116;10.818;2024-03-25T12:48:29;12.60;36.90
41985;DHT22;28319;48.116;10.818;2024-03-25T12:53:30;13.10;34.80
41985;DHT22;28319;48.116;10.818;2024-03-25T12:58:32;12.40;32.20
41985;DHT22;28319;48.116;10.818;2024-03-25T13:03:35;12.50;33.80
41985;DHT22;28319;48.116;10.818;2024-03-25T13:08:36;13.20;36.40
41985;DHT22;28319;48.116;10.818;2024-03-25T13:13:37;13.30;32.80
41985;DHT22;28319;48.116;10.818;2024-03-25T13:18:39;12.10;34.50
41985;DHT22;28319;48.116;10.818;2024-03-25T13:23:40;12.50;33.20
41985;DHT22;28319;48.116;10.818;2024-03-25T13:28:46;12.70;33.30
41985;DHT22;28319;48.116;10.818;2024-03-25T13:33:49;12.40;33.70
41985;DHT22;28319;48.116;10.818;2024-03-25T13:38:50;12.40;32.40
41985;DHT22;28319;48.116;10.818;2024-03-25T13:43:51;12.70;34.00
41985;DHT22;28319;48.116;10.818;2024-03-25T13:48:53;12.30;33.90
41985;DHT22;28319;48.116;10.818;2024-03-25T13:53:54;11.90;34.80
41985;DHT22;28319;48.116;10.818;2024-03-25T13:58:55;12.30;37.20
41985;DHT22;28319;48.116;10.818;2024-03-25T14:03:58;12.20;35.00
41985;DHT22;28319;48.116;10.818;2024-03-25T14:08:59;11.90;35.20
41985;DHT22;28319;48.116;10.818;2024-03-25T14:14:00;11.90;35.00
41985;DHT22;28319;48.116;10.818;2024-03-25T14:19:04;11.80;37.10
41985;DHT22;28319;48.116;10.818;2024-03-25T14:24:07;11.60;36.80
41985;DHT22;28319;48.116;10.818;2024-03-25T14:29:08;11.40;34.40
41985;DHT22;28319;48.116;10.818;2024-03-25T14:34:11;11.60;35.00
41985;DHT22;28319;48.116;10.818;2024-03-25T14:39:11;11.70;34.20
41985;DHT22;28319;48.116;10.818;2024-03-25T14:44:13;11.60;34.60
41985;DHT22;28319;48.116;10.818;2024-03-25T14:49:16;11.30;34.10
41985;DHT22;28319;48.116;10.818;2024-03-25T14:54:17;11.20;33.60
41985;DHT22;28319;48.116;10.818;2024-03-25T14:59:19;11.20;32.60
41985;DHT22;28319;48.116;10.818;2024-03-25T15:04:21;11.40;36.10
41985;DHT22;28319;48.116;10.818;2024-03-25T15:09:22;11.40;33.90
41985;DHT22;28319;48.116;10.818;2024-03-25T15:14:23;11.20;33.20
41985;DHT22;28319;48.116;10.818;2024-03-25T15:19:26;11.40;36.60
41985;DHT22;28319;48.116;10.818;2024-03-25T15:24:27;11.00;33.50
41985;DHT22;28319;48.116;10.818;2024-03-25T15:29:28;10.90;35.50
41985;DHT22;28319;48.116;10.818;2024-03-25T15:34:31;11.10;37.70
41985;DHT22;28319;48.116;10.818;2024-03-25T15:39:32;11.00;36.50
41985;DHT22;28319;48.116;10.818;2024-03-25T15:44:33;10.80;37.40
41985;DHT22;28319;48.116;10.818;2024-03-25T15:49:35;10.70;37.60
41985;DHT22;28319;48.116;10.818;2024-03-25T15:54:37;10.70;37.00
41985;DHT22;28319;48.116;10.818;2024-03-25T15:59:38;10.60;37.30
41985;DHT22;28319;48.116;10.818;2024-03-25T16:04:40;10.50;36.50
41985;DHT22;28319;48.116;10.818;2024-03-25T16:09:41;10.50;39.10
41985;DHT22;28319;48.116;10.818;2024-03-25T16:14:42;10.40;37.90
41985;DHT22;28319;48.116;10.818;2024-03-25T16:19:45;10.20;38.80
41985;DHT22;28319;48.116;10.818;2024-03-25T16:24:50;10.10;39.90
41985;DHT22;28319;48.116;10.818;2024-03-25T16:29:51;10.00;39.80
41985;DHT22;28319;48.116;10.818;2024-03-25T16:34:53;10.00;40.00
41985;DHT22;28319;48.116;10.818;2024-03-25T16:39:55;10.00;40.00
41985;DHT22;28319;48.116;10.818;2024-03-25T16:44:56;10.00;38.10
41985;DHT22;28319;48.116;10.818;2024-03-25T16:49:58;9.70;39.10
41985;DHT22;28319;48.116;10.818;2024-03-25T16:54:59;9.60;39.00
41985;DHT22;28319;48.116;10.818;2024-03-25T17:00:00;9.50;40.80
41985;DHT22;28319;48.116;10.818;2024-03-25T17:05:04;9.40;41.60
41985;DHT22;28319;48.116;10.818;2024-03-25T17:10:06;9.20;41.50
41985;DHT22;28319;48.116;10.818;2024-03-25T17:15:08;9.10;43.40
41985;DHT22;28319;48.116;10.818;2024-03-25T17:20:11;9.00;44.60
41985;DHT22;28319;48.116;10.818;2024-03-25T17:25:13;8.90;43.80
41985;DHT22;28319;48.116;10.818;2024-03-25T17:30:15;8.70;45.20
41985;DHT22;28319;48.116;10.818;2024-03-25T17:35:17;8.60;45.70
41985;DHT22;28319;48.116;10.818;2024-03-25T17:40:18;8.60;46.20
41985;DHT22;28319;48.116;10.818;2024-03-25T17:45:19;8.50;45.70
41985;DHT22;28319;48.116;10.818;2024-03-25T17:50:22;8.30;45.90
41985;DHT22;28319;48.116;10.818;2024-03-25T17:55:24;8.30;46.80
41985;DHT22;28319;48.116;10.818;2024-03-25T18:00:25;8.00;47.20
41985;DHT22;28319;48.116;10.818;2024-03-25T18:05:27;7.90;47.60
41985;DHT22;28319;48.116;10.818;2024-03-25T18:10:28;7.90;48.30
41985;DHT22;28319;48.116;10.818;2024-03-25T18:15:29;7.80;48.00
41985;DHT22;28319;48.116;10.818;2024-03-25T18:20:32;7.70;48.50
41985;DHT22;28319;48.116;10.818;2024-03-25T18:25:33;7.70;48.80
41985;DHT22;28319;48.116;10.818;2024-03-25T18:30:35;7.60;49.60
41985;DHT22;28319;48.116;10.818;2024-03-25T18:35:39;7.40;48.60
41985;DHT22;28319;48.116;10.818;2024-03-25T18:40:40;7.30;49.40
41985;DHT22;28319;48.116;10.818;2024-03-25T18:45:41;7.20;50.30
41985;DHT22;28319;48.116;10.818;2024-03-25T18:50:43;7.30;50.40
41985;DHT22;28319;48.116;10.818;2024-03-25T18:55:45;7.10;50.40
41985;DHT22;28319;48.116;10.818;2024-03-25T19:00:46;7.10;50.50
41985;DHT22;28319;48.116;10.818;2024-03-25T19:05:48;7.00;50.20
41985;DHT22;28319;48.116;10.818;2024-03-25T19:10:49;7.00;51.20
41985;DHT22;28319;48.116;10.818;2024-03-25T19:15:50;6.80;51.20
41985;DHT22;28319;48.116;10.818;2024-03-25T19:20:53;6.70;51.50
41985;DHT22;28319;48.116;10.818;2024-03-25T19:25:55;6.70;51.80
41985;DHT22;28319;48.116;10.818;2024-03-25T19:30:58;6.60;51.90
41985;DHT22;28319;48.116;10.818;2024-03-25T19:36:00;6.50;52.60
41985;DHT22;28319;48.116;10.818;2024-03-25T19:41:01;6.40;52.90
41985;DHT22;28319;48.116;10.818;2024-03-25T19:46:03;6.30;53.20
41985;DHT22;28319;48.116;10.818;2024-03-25T19:51:06;6.30;53.20
41985;DHT22;28319;48.116;10.818;2024-03-25T19:56:07;6.50;53.40
41985;DHT22;28319;48.116;10.818;2024-03-25T20:01:10;6.30;53.70
41985;DHT22;28319;48.116;10.818;2024-03-25T20:06:13;6.30;53.20
41985;DHT22;28319;48.116;10.818;2024-03-25T20:11:14;6.30;53.50
41985;DHT22;28319;48.116;10.818;2024-03-25T20:16:15;6.20;53.70
41985;DHT22;28319;48.116;10.818;2024-03-25T20:21:18;6.30;52.80
41985;DHT22;28319;48.116;10.818;2024-03-25T20:26:19;6.30;53.30
41985;DHT22;28319;48.116;10.818;2024-03-25T20:31:20;6.30;53.40
41985;DHT22;28319;48.116;10.818;2024-03-25T20:36:22;6.10;53.00
41985;DHT22;28319;48.116;10.818;2024-03-25T20:41:23;6.00;53.20
41985;DHT22;28319;48.116;10.818;2024-03-25T20:46:24;5.80;53.70
41985;DHT22;28319;48.116;10.818;2024-03-25T20:51:28;5.80;54.30
41985;DHT22;28319;48.116;10.818;2024-03-25T20:56:29;5.80;54.30
41985;DHT22;28319;48.116;10.818;2024-03-25T21:01:30;5.90;54.70
41985;DHT22;28319;48.116;10.818;2024-03-25T21:06:33;5.50;55.30
41985;DHT22;28319;48.116;10.818;2024-03-25T21:11:34;5.60;54.60
41985;DHT22;28319;48.116;10.818;2024-03-25T21:16:36;5.50;55.30
41985;DHT22;28319;48.116;10.818;2024-03-25T21:21:38;5.40;55.60
41985;DHT22;28319;48.116;10.818;2024-03-25T21:26:39;5.30;55.90
41985;DHT22;28319;48.116;10.818;2024-03-25T21:31:40;5.20;56.20
41985;DHT22;28319;48.116;10.818;2024-03-25T21:36:46;5.20;56.50
41985;DHT22;28319;48.116;10.818;2024-03-25T21:41:48;5.20;56.60
41985;DHT22;28319;48.116;10.818;2024-03-25T21:46:49;5.20;56.80
41985;DHT22;28319;48.116;10.818;2024-03-25T21:51:51;5.30;56.60
41985;DHT22;28319;48.116;10.818;2024-03-25T21:56:52;5.10;56.80
41985;DHT22;28319;48.116;10.818;2024-03-25T22:01:54;5.10;57.00
41985;DHT22;28319;48.116;10.818;2024-03-25T22:06:58;5.00;57.20
41985;DHT22;28319;48.116;10.818;2024-03-25T22:11:59;5.00;57.60
41985;DHT22;28319;48.116;10.818;2024-03-25T22:17:00;5.10;57.40
41985;DHT22;28319;48.116;10.818;2024-03-25T22:22:03;5.00;57.70
41985;DHT22;28319;48.116;10.818;2024-03-25T22:27:04;5.00;57.50
41985;DHT22;28319;48.116;10.818;2024-03-25T22:32:06;5.10;57.40
41985;DHT22;28319;48.116;10.818;2024-03-25T22:37:08;5.10;57.40
41985;DHT22;28319;48.116;10.818;2024-03-25T22:42:11;5.00;57.30
41985;DHT22;28319;48.116;10.818;2024-03-25T22:47:12;5.00;57.50
41985;DHT22;28319;48.116;10.818;2024-03-25T22:52:16;5.20;57.40
41985;DHT22;28319;48.116;10.818;2024-03-25T22:57:17;5.00;57.20
41985;DHT22;28319;48.116;10.818;2024-03-25T23:02:18;5.00;57.50
41985;DHT22;28319;48.116;10.818;2024-03-25T23:07:22;4.90;57.50
41985;DHT22;28319;48.116;10.818;2024-03-25T23:12:23;5.10;57.00
41985;DHT22;28319;48.116;10.818;2024-03-25T23:17:24;5.20;56.60
41985;DHT22;28319;48.116;10.818;2024-03-25T23:22:27;5.20;56.20
41985;DHT22;28319;48.116;10.818;2024-03-25T23:27:28;5.10;56.50
41985;DHT22;28319;48.116;10.818;2024-03-25T23:32:29;5.20;56.20
41985;DHT22;28319;48.116;10.818;2024-03-25T23:37:31;5.10;56.00
41985;DHT22;28319;48.116;10.818;2024-03-25T23:42:33;5.10;56.30
41985;DHT22;28319;48.116;10.818;2024-03-25T23:47:34;5.00;56.40
41985;DHT22;28319;48.116;10.818;2024-03-25T23:52:37;4.90;56.40
41985;DHT22;28319;48.116;10.818;2024-03-25T23:57:38;4.90;56.30
